createdAt,value
2023-03-11T00:00:47.451Z,97265.45
2023-03-11T00:03:16.994Z,97267.31
2023-03-11T00:05:46.197Z,97261.76
2023-03-11T00:08:21.296Z,97259.22
2023-03-11T00:10:58.820Z,97256.69
2023-03-11T00:13:28.900Z,97251.09
2023-03-11T00:15:57.325Z,97250.02
2023-03-11T00:18:31.818Z,97248.70
2023-03-11T00:21:01.080Z,97242.32
2023-03-11T00:23:29.726Z,97240.46
2023-03-11T00:25:59.960Z,97240.30
2023-03-11T00:28:28.373Z,97237.88
2023-03-11T00:30:57.505Z,97236.77
2023-03-11T00:33:25.963Z,97229.70
2023-03-11T00:35:58.605Z,97218.86
2023-03-11T00:38:27.586Z,97221.94
2023-03-11T00:40:55.975Z,97220.29
2023-03-11T00:43:24.227Z,97217.32
2023-03-11T00:45:52.680Z,97216.02
2023-03-11T00:48:23.665Z,97211.57
2023-03-11T00:50:51.949Z,97207.66
2023-03-11T00:53:24.884Z,97202.70
2023-03-11T00:55:53.305Z,97196.10
2023-03-11T00:58:23.848Z,97192.98
2023-03-11T01:00:55.388Z,97186.59
2023-03-11T01:03:24.011Z,97187.02
2023-03-11T01:05:54.835Z,97175.45
2023-03-11T01:08:24.274Z,97178.13
2023-03-11T01:10:53.198Z,97175.66
2023-03-11T01:13:21.933Z,97171.90
2023-03-11T01:15:50.517Z,97165.98
2023-03-11T01:18:18.545Z,97166.67
2023-03-11T01:20:46.811Z,97162.81
2023-03-11T01:23:15.404Z,97156.84
2023-03-11T01:25:44.291Z,97155.16
2023-03-11T01:28:12.972Z,97152.52
2023-03-11T01:30:41.701Z,97150.99
2023-03-11T01:33:15.011Z,97149.56
2023-03-11T01:35:43.877Z,97147.34
2023-03-11T01:38:11.904Z,97150.98
2023-03-11T01:40:42.368Z,97144.86
2023-03-11T01:43:55.348Z,97141.10
2023-03-11T01:46:45.414Z,97139.58
2023-03-11T01:49:13.833Z,97137.98
2023-03-11T01:51:43.755Z,97139.41
2023-03-11T01:54:19.370Z,97135.29
2023-03-11T01:56:47.271Z,97134.40
2023-03-11T01:59:22.708Z,97134.80
2023-03-11T02:01:55.725Z,97127.84
2023-03-11T02:04:24.540Z,97123.88
2023-03-11T02:06:56.548Z,97123.62
2023-03-11T02:09:27.198Z,97125.41
2023-03-11T02:11:56.293Z,97118.13
2023-03-11T02:14:24.943Z,97115.02
2023-03-11T02:16:54.158Z,97109.77
2023-03-11T02:19:31.021Z,97108.88
2023-03-11T02:21:58.906Z,97113.42
2023-03-11T02:24:59.499Z,97110.77
2023-03-11T02:27:31.752Z,97113.37
2023-03-11T02:30:01.116Z,97112.37
2023-03-11T02:32:30.047Z,97110.67
2023-03-11T02:34:58.181Z,97109.98
2023-03-11T02:37:26.453Z,97113.15
2023-03-11T02:40:18.383Z,97107.14
2023-03-11T02:42:46.388Z,97099.27
2023-03-11T02:45:15.589Z,97094.55
2023-03-11T02:47:43.985Z,97091.83
2023-03-11T02:50:15.670Z,97090.29
2023-03-11T02:52:44.060Z,97090.69
2023-03-11T02:55:12.194Z,97088.75
2023-03-11T02:57:41.138Z,97084.85
2023-03-11T03:00:15.858Z,97075.81
2023-03-11T03:02:53.454Z,97072.02
2023-03-11T03:05:22.015Z,97068.38
2023-03-11T03:07:51.477Z,97065.77
2023-03-11T03:10:20.890Z,97065.30
2023-03-11T03:12:56.003Z,97066.26
2023-03-11T03:15:25.893Z,97061.09
2023-03-11T03:17:55.329Z,97055.74
2023-03-11T03:20:30.379Z,97051.94
2023-03-11T03:23:00.502Z,97053.31
2023-03-11T03:28:19.930Z,97045.84
2023-03-11T03:30:48.577Z,97039.20
2023-03-11T03:33:18.727Z,97034.66
2023-03-11T03:35:47.911Z,97035.36
2023-03-11T03:38:22.495Z,97029.42
2023-03-11T03:40:51.347Z,97028.64
2023-03-11T03:43:21.061Z,97027.58
2023-03-11T03:46:01.051Z,97018.40
2023-03-11T03:48:31.902Z,97014.16
2023-03-11T03:51:07.957Z,97006.24
2023-03-11T03:53:36.493Z,97003.23
2023-03-11T03:56:10.558Z,97003.06
2023-03-11T03:58:39.340Z,96997.84
2023-03-11T04:01:08.068Z,96992.41
2023-03-11T04:03:38.239Z,96990.71
2023-03-11T04:06:20.192Z,96986.70
2023-03-11T04:08:51.342Z,96979.95
2023-03-11T04:11:20.832Z,96980.00
2023-03-11T04:13:49.664Z,96975.92
2023-03-11T04:16:21.976Z,96969.75
2023-03-11T04:18:50.993Z,96963.64
2023-03-11T04:21:19.719Z,96957.02
2023-03-11T04:23:53.263Z,96956.13
2023-03-11T04:26:22.614Z,96952.95
2023-03-11T04:28:50.545Z,96948.42
2023-03-11T04:31:19.337Z,96949.63
2023-03-11T04:33:50.206Z,96946.77
2023-03-11T04:36:18.225Z,96944.88
2023-03-11T04:38:46.775Z,96940.07
2023-03-11T04:41:15.221Z,96937.91
2023-03-11T04:43:43.624Z,96939.44
2023-03-11T04:46:11.808Z,96935.05
2023-03-11T04:48:41.534Z,96930.03
2023-03-11T04:51:10.251Z,96926.45
2023-03-11T04:53:39.296Z,96922.75
2023-03-11T04:56:08.027Z,96921.64
2023-03-11T04:58:37.791Z,96914.30
2023-03-11T05:01:06.484Z,96914.15
2023-03-11T05:03:34.685Z,96909.39
2023-03-11T05:06:05.675Z,96904.67
2023-03-11T05:08:33.920Z,96904.32
2023-03-11T05:11:02.435Z,96896.82
2023-03-11T05:13:34.349Z,96891.11
2023-03-11T05:16:04.467Z,96886.93
2023-03-11T05:18:33.018Z,96886.09
2023-03-11T05:21:01.631Z,96878.48
2023-03-11T05:23:31.930Z,96869.34
2023-03-11T05:26:00.445Z,96862.79
2023-03-11T05:28:29.438Z,96867.65
2023-03-11T05:30:57.543Z,96866.40
2023-03-11T05:33:25.985Z,96864.42
2023-03-11T05:35:54.662Z,96859.20
2023-03-11T05:38:22.791Z,96853.98
2023-03-11T05:40:51.144Z,96856.48
2023-03-11T05:43:19.307Z,96850.75
2023-03-11T05:45:52.131Z,96852.73
2023-03-11T05:48:20.198Z,96844.66
2023-03-11T05:50:48.438Z,96845.63
2023-03-11T05:53:17.125Z,96852.05
2023-03-11T05:55:45.519Z,96848.48
2023-03-11T05:58:14.566Z,96842.09
2023-03-11T06:00:43.403Z,96846.07
2023-03-11T06:03:19.308Z,96844.52
2023-03-11T06:05:48.448Z,96839.39
2023-03-11T06:08:16.757Z,96844.95
2023-03-11T06:10:46.829Z,96838.67
2023-03-11T06:13:18.134Z,96842.34
2023-03-11T06:15:53.683Z,96832.87
2023-03-11T06:18:28.487Z,96833.09
2023-03-11T06:20:58.458Z,96834.90
2023-03-11T06:23:27.112Z,96832.31
2023-03-11T06:26:00.038Z,96829.11
2023-03-11T06:28:29.487Z,96826.55
2023-03-11T06:31:06.361Z,96830.80
2023-03-11T06:33:34.865Z,96830.98
2023-03-11T06:36:04.256Z,96822.80
2023-03-11T06:38:38.792Z,96818.61
2023-03-11T06:41:07.313Z,96815.73
2023-03-11T06:43:36.239Z,96818.64
2023-03-11T06:46:21.694Z,96813.58
2023-03-11T06:48:53.622Z,96807.83
2023-03-11T06:51:22.413Z,96802.42
2023-03-11T06:53:52.565Z,96797.21
2023-03-11T06:56:24.036Z,96791.81
2023-03-11T06:59:02.261Z,96782.34
2023-03-11T07:01:32.728Z,96774.20
2023-03-11T07:04:02.379Z,96762.88
2023-03-11T07:06:31.052Z,96765.36
2023-03-11T07:09:04.936Z,96764.34
2023-03-11T07:11:34.025Z,96758.59
2023-03-11T07:14:08.051Z,96760.85
2023-03-11T07:16:38.630Z,96760.33
2023-03-11T07:19:10.617Z,96759.16
2023-03-11T07:21:38.872Z,96760.33
2023-03-11T07:24:07.439Z,96759.73
2023-03-11T07:26:36.393Z,96754.77
2023-03-11T07:29:04.716Z,96756.52
2023-03-11T07:31:34.516Z,96752.98
2023-03-11T07:34:05.932Z,96749.76
2023-03-11T07:36:33.896Z,96748.27
2023-03-11T07:39:04.422Z,96741.95
2023-03-11T07:41:34.432Z,96737.98
2023-03-11T07:44:06.173Z,96735.81
2023-03-11T07:46:34.881Z,96728.89
2023-03-11T07:49:03.978Z,96720.42
2023-03-11T07:51:34.096Z,96710.34
2023-03-11T07:54:02.228Z,96712.71
2023-03-11T07:56:32.180Z,96700.71
2023-03-11T07:59:00.895Z,96691.66
2023-03-11T08:01:36.598Z,96686.67
2023-03-11T08:04:06.014Z,96681.70
2023-03-11T08:06:35.517Z,96681.70
2023-03-11T08:09:05.954Z,96676.20
2023-03-11T08:11:35.152Z,96674.70
2023-03-11T08:14:03.513Z,96668.37
2023-03-11T08:16:33.650Z,96667.52
2023-03-11T08:19:01.926Z,96661.92
2023-03-11T08:21:32.353Z,96657.01
2023-03-11T08:24:01.481Z,96646.90
2023-03-11T08:26:30.342Z,96643.27
2023-03-11T08:29:01.076Z,96641.67
2023-03-11T08:31:31.493Z,96636.39
2023-03-11T08:34:02.685Z,96641.67
2023-03-11T08:36:36.245Z,96636.95
2023-03-11T08:39:04.726Z,96635.42
2023-03-11T08:41:33.240Z,96629.55
2023-03-11T08:44:01.481Z,96622.02
2023-03-11T08:46:32.311Z,96620.76
2023-03-11T08:49:01.359Z,96616.83
2023-03-11T08:51:32.502Z,96622.80
2023-03-11T08:54:02.386Z,96630.65
2023-03-11T08:56:31.092Z,96622.45
2023-03-11T08:58:59.633Z,96617.07
2023-03-11T09:01:29.783Z,96616.17
2023-03-11T09:03:58.080Z,96613.13
2023-03-11T09:06:30.597Z,96614.56
2023-03-11T09:09:01.239Z,96610.51
2023-03-11T09:11:29.524Z,96604.59
2023-03-11T09:14:02.122Z,96600.05
2023-03-11T09:16:30.476Z,96588.05
2023-03-11T09:19:00.490Z,96572.44
2023-03-11T09:21:29.405Z,96572.55
2023-03-11T09:23:57.549Z,96570.32
2023-03-11T09:26:25.634Z,96566.92
2023-03-11T09:28:53.826Z,96559.58
2023-03-11T09:31:22.051Z,96559.41
2023-03-11T09:33:52.298Z,96553.23
2023-03-11T09:36:21.251Z,96548.00
2023-03-11T09:38:49.332Z,96545.48
2023-03-11T09:41:18.871Z,96534.73
2023-03-11T09:43:56.048Z,96526.08
2023-03-11T09:46:34.691Z,96521.48
2023-03-11T09:49:21.584Z,96513.42
2023-03-11T09:52:13.162Z,96508.89
2023-03-11T09:54:49.713Z,96499.98
2023-03-11T09:57:29.654Z,96494.05
2023-03-11T09:59:57.969Z,96492.95
2023-03-11T10:02:29.639Z,96478.71
2023-03-11T10:05:09.877Z,96471.66
2023-03-11T10:07:44.900Z,96471.66
2023-03-11T10:10:14.023Z,96463.38
2023-03-11T10:13:00.840Z,96459.11
2023-03-11T10:15:49.056Z,96451.52
2023-03-11T10:18:38.055Z,96451.27
2023-03-11T10:21:41.950Z,96454.14
2023-03-11T10:24:33.181Z,96453.46
2023-03-11T10:27:20.196Z,96448.21
2023-03-11T10:30:02.859Z,96447.27
2023-03-11T10:32:41.384Z,96450.86
2023-03-11T10:35:16.976Z,96446.41
2023-03-11T10:37:59.793Z,96443.57
2023-03-11T10:40:33.570Z,96430.67
2023-03-11T10:43:10.025Z,96424.19
2023-03-11T10:45:39.073Z,96418.11
2023-03-11T10:48:14.911Z,96414.39
2023-03-11T10:51:26.990Z,96409.75
2023-03-11T10:53:59.088Z,96410.42
2023-03-11T10:56:35.049Z,96411.54
2023-03-11T10:59:04.610Z,96410.95
2023-03-11T11:01:33.026Z,96401.33
2023-03-11T11:04:01.345Z,96390.48
2023-03-11T11:06:31.625Z,96388.20
2023-03-11T11:09:23.653Z,96380.20
2023-03-11T11:12:06.822Z,96377.14
2023-03-11T11:14:46.655Z,96369.33
2023-03-11T11:17:26.577Z,96360.67
2023-03-11T11:19:55.188Z,96358.05
2023-03-11T11:22:23.557Z,96355.79
2023-03-11T11:24:56.223Z,96349.64
2023-03-11T11:27:26.088Z,96344.48
2023-03-11T11:30:15.866Z,96342.57
2023-03-11T11:33:32.537Z,96342.66
2023-03-11T11:36:03.306Z,96343.15
2023-03-11T11:38:32.999Z,96334.05
2023-03-11T11:41:03.172Z,96326.61
2023-03-11T11:43:55.341Z,96331.52
2023-03-11T11:46:35.072Z,96330.13
2023-03-11T11:49:17.377Z,96320.52
2023-03-11T11:51:58.787Z,96320.88
2023-03-11T11:54:31.535Z,96311.68
2023-03-11T11:57:00.182Z,96306.03
2023-03-11T11:59:28.213Z,96308.55
2023-03-11T12:02:24.847Z,96304.69
2023-03-11T12:05:11.920Z,96311.69
2023-03-11T12:07:55.445Z,96306.39
2023-03-11T12:10:47.472Z,96302.33
2023-03-11T12:13:35.700Z,96302.48
2023-03-11T12:16:19.630Z,96306.55
2023-03-11T12:18:50.663Z,96297.29
2023-03-11T12:21:36.119Z,96301.77
2023-03-11T12:24:26.235Z,96305.39
2023-03-11T12:26:54.384Z,96301.41
2023-03-11T12:29:34.370Z,96303.85
2023-03-11T12:32:02.894Z,96294.34
2023-03-11T12:34:31.432Z,96295.59
2023-03-11T12:37:03.505Z,96293.42
2023-03-11T12:39:35.295Z,96293.09
2023-03-11T12:42:16.426Z,96287.66
2023-03-11T12:44:45.338Z,96283.31
2023-03-11T12:47:18.599Z,96275.45
2023-03-11T12:49:48.913Z,96274.27
2023-03-11T12:52:19.254Z,96274.16
2023-03-11T12:55:08.603Z,96268.82
2023-03-11T12:57:49.974Z,96269.12
2023-03-11T13:00:39.038Z,96265.10
2023-03-11T13:03:46.077Z,96261.13
2023-03-11T13:06:26.556Z,96257.17
2023-03-11T13:08:57.451Z,96258.71
2023-03-11T13:11:31.815Z,96259.92
2023-03-11T13:14:20.072Z,96257.69
2023-03-11T13:16:48.700Z,96252.66
2023-03-11T13:19:32.222Z,96248.92
2023-03-11T13:22:01.821Z,96249.86
2023-03-11T13:24:30.209Z,96254.72
2023-03-11T13:27:09.963Z,96250.38
2023-03-11T13:30:10.451Z,96244.86
2023-03-11T13:32:55.089Z,96244.76
2023-03-11T13:35:26.774Z,96244.52
2023-03-11T13:38:17.710Z,96241.92
2023-03-11T13:40:46.488Z,96236.98
2023-03-11T13:43:16.205Z,96232.96
2023-03-11T13:46:05.981Z,96234.38
2023-03-11T13:48:45.126Z,96231.92
2023-03-11T13:51:22.718Z,96225.07
2023-03-11T13:53:56.721Z,96218.41
2023-03-11T13:56:27.126Z,96214.48
2023-03-11T13:59:15.762Z,96212.73
2023-03-11T14:01:54.740Z,96215.81
2023-03-11T14:04:33.503Z,96214.08
2023-03-11T14:07:19.337Z,96208.00
2023-03-11T14:09:50.382Z,96207.71
2023-03-11T14:12:19.183Z,96203.27
2023-03-11T14:14:56.368Z,96204.12
2023-03-11T14:17:27.569Z,96201.99
2023-03-11T14:20:04.776Z,96208.06
2023-03-11T14:22:33.871Z,96207.95
2023-03-11T14:25:08.709Z,96206.73
2023-03-11T14:27:40.204Z,96209.41
2023-03-11T14:30:17.423Z,96205.86
2023-03-11T14:33:18.306Z,96206.17
2023-03-11T14:35:53.695Z,96208.92
2023-03-11T14:38:22.846Z,96209.99
2023-03-11T14:40:55.100Z,96207.98
2023-03-11T14:43:23.694Z,96208.65
2023-03-11T14:45:52.727Z,96206.32
2023-03-11T14:48:36.424Z,96205.95
2023-03-11T14:51:07.397Z,96200.20
2023-03-11T14:53:40.520Z,96204.46
2023-03-11T14:56:22.015Z,96205.40
2023-03-11T14:59:07.323Z,96202.14
2023-03-11T15:01:41.081Z,96199.50
2023-03-11T15:04:29.441Z,96199.73
2023-03-11T15:06:57.512Z,96201.46
2023-03-11T15:09:25.636Z,96196.45
2023-03-11T15:11:59.216Z,96200.03
2023-03-11T15:14:31.804Z,96192.95
2023-03-11T15:17:42.601Z,96193.23
2023-03-11T15:20:31.006Z,96194.15
2023-03-11T15:23:03.880Z,96187.05
2023-03-11T15:25:36.214Z,96190.67
2023-03-11T15:28:25.308Z,96189.04
2023-03-11T15:31:21.251Z,96190.25
2023-03-11T15:33:49.815Z,96195.08
2023-03-11T15:36:35.178Z,96199.42
2023-03-11T15:39:11.430Z,96199.61
2023-03-11T15:41:43.498Z,96205.64
2023-03-11T15:45:38.477Z,96205.23
2023-03-11T15:48:06.533Z,96208.60
2023-03-11T15:50:50.569Z,96211.70
2023-03-11T15:53:25.330Z,96212.80
2023-03-11T15:55:54.122Z,96213.33
2023-03-11T15:58:22.083Z,96212.11
2023-03-11T16:00:56.039Z,96212.15
2023-03-11T16:03:24.332Z,96219.06
2023-03-11T16:05:53.612Z,96216.11
2023-03-11T16:08:23.132Z,96214.71
2023-03-11T16:10:51.351Z,96213.16
2023-03-11T16:13:24.610Z,96213.44
2023-03-11T16:15:53.177Z,96214.87
2023-03-11T16:18:21.751Z,96212.72
2023-03-11T16:20:53.499Z,96212.34
2023-03-11T16:23:24.248Z,96209.00
2023-03-11T16:25:57.162Z,96204.41
2023-03-11T16:28:25.677Z,96207.71
2023-03-11T16:30:53.677Z,96209.42
2023-03-11T16:33:22.415Z,96210.91
2023-03-11T16:35:50.651Z,96208.37
2023-03-11T16:38:23.226Z,96210.75
2023-03-11T16:40:57.907Z,96207.20
2023-03-11T16:43:27.607Z,96206.27
2023-03-11T16:45:56.375Z,96206.98
2023-03-11T16:48:24.703Z,96211.16
2023-03-11T16:50:53.821Z,96213.84
2023-03-11T16:53:22.091Z,96215.38
2023-03-11T16:55:50.465Z,96210.27
2023-03-11T16:58:19.364Z,96210.81
2023-03-11T17:00:47.533Z,96206.47
2023-03-11T17:03:18.244Z,96211.06
2023-03-11T17:05:49.314Z,96210.27
2023-03-11T17:08:18.506Z,96207.59
2023-03-11T17:10:46.902Z,96209.95
2023-03-11T17:13:17.741Z,96213.33
2023-03-11T17:15:58.932Z,96214.62
2023-03-11T17:18:41.004Z,96207.42
2023-03-11T17:21:10.652Z,96205.23
2023-03-11T17:23:38.526Z,96208.98
2023-03-11T17:26:15.966Z,96208.80
2023-03-11T17:28:47.124Z,96202.45
2023-03-11T17:31:16.288Z,96198.39
2023-03-11T17:33:44.999Z,96197.23
2023-03-11T17:36:16.049Z,96193.79
2023-03-11T17:38:46.781Z,96196.48
2023-03-11T17:41:16.983Z,96197.88
2023-03-11T17:43:45.079Z,96199.88
2023-03-11T17:46:15.536Z,96201.16
2023-03-11T17:48:45.113Z,96203.08
2023-03-11T17:51:19.653Z,96201.42
2023-03-11T17:53:48.444Z,96198.88
2023-03-11T17:56:22.011Z,96204.75
2023-03-11T17:58:51.831Z,96200.20
2023-03-11T18:01:24.963Z,96189.44
2023-03-11T18:03:56.286Z,96181.11
2023-03-11T18:06:24.736Z,96178.16
2023-03-11T18:08:55.261Z,96167.65
2023-03-11T18:11:27.027Z,96169.61
2023-03-11T18:13:55.519Z,96170.20
2023-03-11T18:16:25.801Z,96169.94
2023-03-11T18:18:57.584Z,96171.63
2023-03-11T18:21:28.062Z,96168.89
2023-03-11T18:23:59.808Z,96161.50
2023-03-11T18:26:28.935Z,96164.75
2023-03-11T18:28:57.546Z,96163.83
2023-03-11T18:31:26.703Z,96161.05
2023-03-11T18:33:58.947Z,96165.95
2023-03-11T18:36:28.926Z,96171.64
2023-03-11T18:38:58.232Z,96177.09
2023-03-11T18:41:26.855Z,96179.91
2023-03-11T18:43:57.547Z,96179.38
2023-03-11T18:46:28.477Z,96182.79
2023-03-11T18:48:59.421Z,96181.46
2023-03-11T18:51:28.699Z,96173.52
2023-03-11T18:53:56.895Z,96178.45
2023-03-11T18:56:24.965Z,96178.11
2023-03-11T18:58:54.167Z,96184.45
2023-03-11T19:01:22.237Z,96180.83
2023-03-11T19:03:52.237Z,96184.35
2023-03-11T19:06:20.350Z,96187.63
2023-03-11T19:08:49.587Z,96190.73
2023-03-11T19:11:20.165Z,96162.06
2023-03-11T19:13:51.099Z,96190.13
2023-03-11T19:16:21.631Z,96193.81
2023-03-11T19:18:50.533Z,96195.02
2023-03-11T19:21:19.030Z,96195.86
2023-03-11T19:23:47.176Z,96195.86
2023-03-11T19:26:15.034Z,96195.93
2023-03-11T19:28:43.210Z,96192.07
2023-03-11T19:31:11.421Z,96189.27
2023-03-11T19:33:43.245Z,96182.64
2023-03-11T19:36:12.509Z,96185.46
2023-03-11T19:38:40.702Z,96175.68
2023-03-11T19:41:18.710Z,96172.46
2023-03-11T19:43:47.559Z,96170.83
2023-03-11T19:46:18.272Z,96172.30
2023-03-11T19:48:46.493Z,96178.65
2023-03-11T19:51:14.509Z,96176.45
2023-03-11T19:53:42.788Z,96176.91
2023-03-11T19:56:17.295Z,96171.16
2023-03-11T19:58:45.294Z,96176.70
2023-03-11T20:01:16.115Z,96174.91
2023-03-11T20:03:44.557Z,96174.66
2023-03-11T20:06:16.397Z,96186.27
2023-03-11T20:08:50.878Z,96192.94
2023-03-11T20:11:20.707Z,96190.95
2023-03-11T20:13:49.148Z,96193.80
2023-03-11T20:16:18.931Z,96187.64
2023-03-11T20:18:53.958Z,96184.54
2023-03-11T20:21:22.066Z,96188.20
2023-03-11T20:23:50.678Z,96190.89
2023-03-11T20:26:19.413Z,96191.70
2023-03-11T20:28:48.005Z,96197.43
2023-03-11T20:31:19.790Z,96196.38
2023-03-11T20:33:48.947Z,96198.33
2023-03-11T20:36:21.175Z,96196.65
2023-03-11T20:38:50.612Z,96188.07
2023-03-11T20:41:19.254Z,96185.36
2023-03-11T20:43:47.309Z,96185.21
2023-03-11T20:46:16.702Z,96188.48
2023-03-11T20:48:46.303Z,96185.30
2023-03-11T20:51:16.506Z,96185.02
2023-03-11T20:54:03.549Z,96179.78
2023-03-11T20:56:32.217Z,96180.63
2023-03-11T20:59:01.111Z,96175.68
2023-03-11T21:01:30.411Z,96187.77
2023-03-11T21:04:01.595Z,96194.19
2023-03-11T21:06:38.424Z,96197.09
2023-03-11T21:09:14.123Z,96194.61
2023-03-11T21:11:42.405Z,96192.30
2023-03-11T21:14:10.762Z,96188.13
2023-03-11T21:16:42.805Z,96188.19
2023-03-11T21:19:13.544Z,96186.27
2023-03-11T21:21:41.805Z,96187.15
2023-03-11T21:24:11.037Z,96192.50
2023-03-11T21:26:39.645Z,96195.30
2023-03-11T21:29:08.634Z,96195.49
2023-03-11T21:31:36.774Z,96193.86
2023-03-11T21:34:05.058Z,96194.23
2023-03-11T21:36:38.363Z,96190.66
2023-03-11T21:39:07.279Z,96187.98
2023-03-11T21:41:35.476Z,96192.58
2023-03-11T21:44:06.199Z,96191.60
2023-03-11T21:46:34.236Z,96202.78
2023-03-11T21:49:05.790Z,96210.50
2023-03-11T21:51:35.459Z,96212.44
2023-03-11T21:54:05.483Z,96216.89
2023-03-11T21:56:35.217Z,96220.05
2023-03-11T21:59:03.982Z,96221.81
2023-03-11T22:01:35.260Z,96219.95
2023-03-11T22:04:03.627Z,96215.37
2023-03-11T22:06:33.444Z,96215.47
2023-03-11T22:09:01.728Z,96221.13
2023-03-11T22:11:31.604Z,96228.05
2023-03-11T22:14:01.086Z,96228.64
2023-03-11T22:16:30.424Z,96231.92
2023-03-11T22:19:00.200Z,96230.64
2023-03-11T22:21:28.289Z,96225.00
2023-03-11T22:23:56.470Z,96224.61
2023-03-11T22:26:24.365Z,96227.61
2023-03-11T22:28:52.420Z,96226.12
2023-03-11T22:31:20.611Z,96229.46
2023-03-11T22:33:49.435Z,96231.09
2023-03-11T22:36:17.354Z,96235.19
2023-03-11T22:38:46.205Z,96238.80
2023-03-11T22:41:19.387Z,96245.98
2023-03-11T22:43:47.507Z,96251.95
2023-03-11T22:46:15.539Z,96257.70
2023-03-11T22:48:43.593Z,96257.77
2023-03-11T22:51:15.083Z,96261.87
2023-03-11T22:53:43.678Z,96269.12
2023-03-11T22:56:13.733Z,96273.55
2023-03-11T22:58:42.244Z,96270.59
2023-03-11T23:01:10.453Z,96271.26
2023-03-11T23:03:38.986Z,96276.98
2023-03-11T23:06:08.560Z,96280.41
2023-03-11T23:08:36.851Z,96278.77
2023-03-11T23:11:08.345Z,96285.27
2023-03-11T23:13:37.669Z,96285.86
2023-03-11T23:16:07.455Z,96283.17
2023-03-11T23:18:38.243Z,96281.32
2023-03-11T23:21:24.038Z,96279.55
2023-03-11T23:23:52.026Z,96277.32
2023-03-11T23:26:20.397Z,96282.52
2023-03-11T23:28:51.192Z,96282.31
2023-03-11T23:31:20.427Z,96283.04
2023-03-11T23:33:49.685Z,96286.45
2023-03-11T23:36:19.985Z,96285.98
2023-03-11T23:38:54.679Z,96288.99
2023-03-11T23:41:23.829Z,96292.12
2023-03-11T23:43:51.907Z,96299.33
2023-03-11T23:46:20.147Z,96303.40
2023-03-11T23:48:48.413Z,96309.80
2023-03-11T23:51:16.417Z,96304.61
2023-03-11T23:53:45.614Z,96307.36
2023-03-11T23:56:17.143Z,96312.23
2023-03-11T23:58:46.230Z,96313.70
